createdAt,value
2023-02-12T00:02:01.165Z,62.37
2023-02-12T00:04:30.558Z,63.53
2023-02-12T00:06:58.568Z,64.87
2023-02-12T00:09:26.853Z,57.30
2023-02-12T00:11:56.625Z,61.57
2023-02-12T00:14:25.018Z,64.50
2023-02-12T00:16:53.881Z,59.90
2023-02-12T00:19:21.856Z,58.70
2023-02-12T00:21:54.839Z,66.60
2023-02-12T00:24:23.642Z,55.53
2023-02-12T00:26:51.628Z,64.70
2023-02-12T00:29:21.848Z,55.67
2023-02-12T00:31:50.157Z,59.77
2023-02-12T00:34:18.196Z,63.20
2023-02-12T00:36:47.063Z,52.20
2023-02-12T00:39:15.110Z,62.30
2023-02-12T00:41:43.134Z,59.17
2023-02-12T00:44:12.040Z,52.90
2023-02-12T00:46:41.466Z,57.07
2023-02-12T00:49:10.387Z,58.10
2023-02-12T00:51:39.017Z,57.43
2023-02-12T00:54:07.393Z,55.03
2023-02-12T00:56:35.825Z,62.67
2023-02-12T00:59:04.230Z,59.30
2023-02-12T01:01:32.678Z,56.40
2023-02-12T01:04:02.103Z,63.57
2023-02-12T01:06:31.288Z,56.87
2023-02-12T01:08:59.315Z,63.73
2023-02-12T01:11:27.588Z,52.40
2023-02-12T01:13:57.211Z,60.63
2023-02-12T01:16:28.536Z,67.17
2023-02-12T01:18:57.886Z,59.87
2023-02-12T01:21:29.035Z,70.40
2023-02-12T01:23:57.634Z,59.10
2023-02-12T01:26:27.011Z,63.73
2023-02-12T01:28:57.400Z,55.43
2023-02-12T01:31:28.904Z,71.03
2023-02-12T01:33:59.529Z,69.93
2023-02-12T01:36:31.305Z,79.73
2023-02-12T01:39:02.588Z,67.63
2023-02-12T01:41:33.610Z,57.50
2023-02-12T01:44:15.364Z,62.57
2023-02-12T01:46:45.626Z,72.70
2023-02-12T01:49:23.191Z,65.63
2023-02-12T01:51:57.848Z,58.40
2023-02-12T01:54:29.864Z,55.67
2023-02-12T01:57:01.171Z,63.90
2023-02-12T01:59:30.776Z,58.97
2023-02-12T02:01:59.229Z,57.97
2023-02-12T02:04:30.916Z,56.27
2023-02-12T02:07:02.998Z,59.77
2023-02-12T02:09:35.276Z,62.83
2023-02-12T02:12:21.605Z,61.67
2023-02-12T02:14:52.873Z,65.70
2023-02-12T02:17:40.347Z,67.13
2023-02-12T02:20:42.890Z,77.53
2023-02-12T02:23:30.331Z,67.63
2023-02-12T02:26:24.384Z,69.83
2023-02-12T02:29:10.612Z,58.93
2023-02-12T02:31:44.605Z,62.73
2023-02-12T02:34:19.018Z,66.33
2023-02-12T02:37:00.540Z,65.27
2023-02-12T02:39:38.580Z,54.40
2023-02-12T02:42:17.188Z,64.47
2023-02-12T02:44:52.053Z,72.00
2023-02-12T02:47:25.899Z,59.20
2023-02-12T02:49:58.758Z,65.90
2023-02-12T02:52:32.860Z,68.93
2023-02-12T02:55:07.123Z,68.20
2023-02-12T02:57:43.634Z,80.80
2023-02-12T03:00:17.190Z,65.30
2023-02-12T03:02:51.555Z,65.97
2023-02-12T03:05:24.882Z,67.70
2023-02-12T03:08:01.935Z,77.13
2023-02-12T03:10:36.917Z,73.43
2023-02-12T03:13:10.697Z,70.67
2023-02-12T03:15:44.373Z,69.13
2023-02-12T03:18:20.250Z,73.40
2023-02-12T03:20:53.636Z,67.20
2023-02-12T03:23:28.219Z,73.60
2023-02-12T03:26:02.872Z,71.40
2023-02-12T03:28:32.958Z,72.43
2023-02-12T03:31:09.626Z,76.10
2023-02-12T03:33:50.080Z,73.70
2023-02-12T03:36:27.665Z,65.77
2023-02-12T03:38:58.688Z,79.03
2023-02-12T03:41:31.904Z,69.07
2023-02-12T03:44:06.697Z,78.73
2023-02-12T03:46:43.955Z,74.40
2023-02-12T03:49:21.256Z,73.70
2023-02-12T03:51:49.503Z,66.47
2023-02-12T03:54:20.750Z,64.40
2023-02-12T03:56:53.170Z,67.27
2023-02-12T03:59:22.950Z,58.57
2023-02-12T04:01:54.696Z,63.90
2023-02-12T04:04:26.755Z,68.73
2023-02-12T04:06:55.475Z,62.07
2023-02-12T04:09:26.287Z,58.37
2023-02-12T04:12:10.184Z,55.47
2023-02-12T04:14:46.504Z,64.77
2023-02-12T04:17:23.078Z,68.40
2023-02-12T04:20:04.176Z,60.70
2023-02-12T04:22:50.176Z,52.47
2023-02-12T04:25:28.364Z,60.03
2023-02-12T04:28:07.558Z,54.73
2023-02-12T04:30:42.989Z,56.90
2023-02-12T04:33:20.021Z,61.77
2023-02-12T04:35:53.821Z,61.37
2023-02-12T04:38:27.305Z,55.00
2023-02-12T04:40:55.956Z,54.93
2023-02-12T04:43:29.433Z,58.30
2023-02-12T04:45:58.307Z,50.77
2023-02-12T04:48:27.992Z,62.83
2023-02-12T04:50:57.347Z,53.33
2023-02-12T04:53:26.228Z,59.63
2023-02-12T04:55:56.024Z,52.60
2023-02-12T04:58:25.063Z,60.30
2023-02-12T05:00:53.945Z,55.57
2023-02-12T05:03:22.962Z,59.10
2023-02-12T05:05:51.178Z,53.97
2023-02-12T05:08:22.539Z,55.47
2023-02-12T05:10:50.569Z,54.43
2023-02-12T05:13:19.005Z,57.93
2023-02-12T05:15:47.021Z,53.03
2023-02-12T05:18:16.285Z,49.80
2023-02-12T05:20:44.792Z,56.50
2023-02-12T05:23:13.972Z,50.97
2023-02-12T05:25:43.703Z,53.43
2023-02-12T05:28:12.012Z,50.07
2023-02-12T05:30:40.499Z,57.53
2023-02-12T05:33:08.529Z,56.03
2023-02-12T05:35:37.217Z,56.80
2023-02-12T05:38:05.210Z,47.70
2023-02-12T05:40:34.743Z,57.50
2023-02-12T05:43:04.164Z,53.73
2023-02-12T05:45:33.725Z,55.57
2023-02-12T05:48:04.966Z,51.83
2023-02-12T05:50:36.571Z,59.83
2023-02-12T05:53:09.139Z,56.20
2023-02-12T05:55:38.365Z,57.17
2023-02-12T05:58:08.224Z,50.43
2023-02-12T06:00:36.288Z,58.13
2023-02-12T06:03:05.352Z,54.10
2023-02-12T06:05:33.577Z,57.80
2023-02-12T06:08:02.477Z,61.07
2023-02-12T06:10:30.509Z,56.03
2023-02-12T06:12:59.202Z,57.93
2023-02-12T06:15:28.545Z,58.13
2023-02-12T06:17:58.013Z,50.90
2023-02-12T06:20:26.994Z,51.87
2023-02-12T06:22:54.992Z,65.50
2023-02-12T06:25:23.454Z,59.93
2023-02-12T06:27:51.451Z,53.07
2023-02-12T06:30:20.010Z,56.50
2023-02-12T06:32:51.840Z,54.33
2023-02-12T06:35:22.010Z,64.30
2023-02-12T06:37:50.052Z,48.47
2023-02-12T06:40:19.131Z,56.10
2023-02-12T06:42:50.253Z,58.37
2023-02-12T06:45:18.513Z,62.97
2023-02-12T06:47:47.521Z,51.87
2023-02-12T06:50:17.546Z,60.07
2023-02-12T06:52:46.180Z,58.17
2023-02-12T06:55:14.780Z,57.20
2023-02-12T06:57:42.768Z,64.60
2023-02-12T07:00:13.031Z,58.87
2023-02-12T07:02:41.030Z,56.53
2023-02-12T07:05:10.880Z,52.97
2023-02-12T07:07:40.195Z,62.57
2023-02-12T07:10:11.358Z,69.63
2023-02-12T07:12:41.048Z,55.23
2023-02-12T07:15:10.552Z,60.00
2023-02-12T07:17:38.693Z,62.40
2023-02-12T07:20:08.373Z,58.27
2023-02-12T07:22:37.524Z,63.17
2023-02-12T07:25:09.049Z,61.70
2023-02-12T07:27:38.464Z,63.27
2023-02-12T07:30:10.052Z,60.43
2023-02-12T07:32:38.071Z,53.90
2023-02-12T07:35:11.063Z,54.03
2023-02-12T07:37:39.098Z,58.03
2023-02-12T07:40:12.405Z,59.93
2023-02-12T07:42:41.134Z,63.50
2023-02-12T07:45:11.526Z,66.03
2023-02-12T07:47:41.415Z,52.63
2023-02-12T07:50:12.586Z,71.67
2023-02-12T07:52:48.708Z,57.57
2023-02-12T07:55:18.833Z,63.83
2023-02-12T07:57:47.298Z,67.40
2023-02-12T08:00:17.117Z,60.87
2023-02-12T08:02:46.239Z,56.47
2023-02-12T08:05:14.229Z,62.43
2023-02-12T08:07:44.425Z,58.87
2023-02-12T08:10:13.106Z,65.93
2023-02-12T08:12:44.066Z,58.40
2023-02-12T08:15:13.088Z,55.77
2023-02-12T08:17:43.857Z,64.53
2023-02-12T08:20:12.681Z,63.53
2023-02-12T08:22:40.682Z,59.53
2023-02-12T08:25:09.532Z,59.70
2023-02-12T08:27:37.517Z,60.17
2023-02-12T08:30:13.359Z,66.70
2023-02-12T08:32:43.068Z,53.40
2023-02-12T08:35:13.109Z,60.53
2023-02-12T08:37:41.571Z,60.27
2023-02-12T08:40:12.994Z,53.87
2023-02-12T08:42:42.437Z,57.30
2023-02-12T08:45:12.016Z,61.93
2023-02-12T08:47:41.129Z,64.00
2023-02-12T08:50:10.540Z,58.50
2023-02-12T08:52:38.999Z,52.83
2023-02-12T08:55:08.688Z,57.70
2023-02-12T08:57:39.094Z,62.10
2023-02-12T09:00:08.882Z,73.10
2023-02-12T09:02:38.227Z,64.97
2023-02-12T09:05:07.564Z,64.37
2023-02-12T09:07:35.581Z,63.57
2023-02-12T09:10:04.096Z,57.83
2023-02-12T09:12:32.231Z,52.30
2023-02-12T09:15:02.114Z,63.17
2023-02-12T09:17:30.841Z,56.20
2023-02-12T09:20:01.425Z,57.13
2023-02-12T09:22:31.121Z,51.30
2023-02-12T09:24:59.213Z,47.30
2023-02-12T09:27:31.368Z,59.47
2023-02-12T09:29:59.661Z,61.37
2023-02-12T09:32:28.124Z,58.43
2023-02-12T09:34:56.142Z,48.30
2023-02-12T09:37:27.145Z,43.20
2023-02-12T09:39:56.620Z,47.03
2023-02-12T09:42:43.664Z,50.07
2023-02-12T09:45:20.171Z,44.97
2023-02-12T09:47:55.664Z,45.53
2023-02-12T09:50:34.125Z,44.93
2023-02-12T09:53:04.234Z,39.60
2023-02-12T09:55:34.158Z,50.60
2023-02-12T09:58:08.164Z,40.90
2023-02-12T10:00:36.273Z,41.43
2023-02-12T10:03:15.736Z,44.20
2023-02-12T10:05:50.251Z,47.87
2023-02-12T10:08:51.461Z,39.90
2023-02-12T10:11:44.829Z,49.97
2023-02-12T10:14:39.171Z,43.43
2023-02-12T10:17:18.361Z,43.40
2023-02-12T10:20:08.273Z,40.33
2023-02-12T10:22:56.107Z,48.53
2023-02-12T10:25:39.382Z,53.07
2023-02-12T10:28:13.997Z,50.70
2023-02-12T10:30:48.584Z,60.53
2023-02-12T10:33:21.625Z,47.93
2023-02-12T10:35:55.246Z,48.33
2023-02-12T10:38:28.698Z,47.23
2023-02-12T10:41:01.773Z,45.33
2023-02-12T10:43:31.301Z,44.17
2023-02-12T10:45:59.595Z,45.20
2023-02-12T10:48:34.510Z,42.83
2023-02-12T10:51:18.119Z,43.07
2023-02-12T10:53:51.177Z,38.90
2023-02-12T10:56:24.510Z,43.90
2023-02-12T10:58:56.551Z,47.23
2023-02-12T11:01:28.482Z,46.07
2023-02-12T11:03:59.746Z,41.67
2023-02-12T11:06:31.736Z,40.67
2023-02-12T11:09:00.676Z,42.80
2023-02-12T11:11:32.496Z,41.30
2023-02-12T11:14:04.715Z,48.40
2023-02-12T11:16:35.477Z,49.70
2023-02-12T11:19:08.184Z,43.27
2023-02-12T11:21:37.901Z,45.97
2023-02-12T11:24:23.918Z,50.20
2023-02-12T11:27:22.167Z,44.70
2023-02-12T11:30:13.043Z,57.80
2023-02-12T11:32:41.320Z,40.17
2023-02-12T11:35:16.108Z,40.00
2023-02-12T11:37:46.159Z,48.50
2023-02-12T11:40:22.764Z,43.33
2023-02-12T11:42:56.653Z,48.28
2023-02-12T11:45:32.723Z,42.67
2023-02-12T11:48:01.931Z,39.73
2023-02-12T11:50:32.725Z,41.97
2023-02-12T11:53:07.237Z,52.30
2023-02-12T11:55:40.334Z,37.13
2023-02-12T11:58:18.726Z,41.40
2023-02-12T12:00:53.188Z,42.90
2023-02-12T12:03:27.221Z,43.70
2023-02-12T12:06:02.229Z,43.50
2023-02-12T12:08:39.888Z,44.80
2023-02-12T12:11:14.326Z,44.43
2023-02-12T12:13:50.311Z,37.97
2023-02-12T12:16:43.412Z,41.83
2023-02-12T12:19:35.250Z,46.47
2023-02-12T12:22:06.633Z,47.33
2023-02-12T12:24:42.497Z,48.90
2023-02-12T12:27:45.849Z,49.60
2023-02-12T12:30:38.584Z,56.07
2023-02-12T12:33:14.336Z,50.03
2023-02-12T12:35:56.352Z,51.00
2023-02-12T12:38:34.978Z,50.90
2023-02-12T12:41:10.847Z,57.13
2023-02-12T12:43:59.020Z,44.07
2023-02-12T12:46:44.793Z,48.30
2023-02-12T12:49:41.871Z,49.73
2023-02-12T12:52:41.746Z,47.07
2023-02-12T12:55:28.447Z,45.53
2023-02-12T12:58:09.412Z,46.93
2023-02-12T13:00:51.615Z,43.50
2023-02-12T13:04:03.257Z,46.20
2023-02-12T13:06:59.334Z,49.43
2023-02-12T13:09:43.609Z,41.77
2023-02-12T13:12:35.672Z,40.20
2023-02-12T13:15:15.247Z,33.33
2023-02-12T13:17:50.218Z,42.60
2023-02-12T13:20:28.884Z,44.40
2023-02-12T13:23:10.544Z,40.20
2023-02-12T13:25:48.504Z,36.57
2023-02-12T13:28:33.165Z,41.70
2023-02-12T13:31:09.476Z,42.00
2023-02-12T13:33:52.091Z,40.97
2023-02-12T13:36:21.553Z,48.10
2023-02-12T13:39:00.444Z,38.70
2023-02-12T13:41:30.366Z,33.43
2023-02-12T13:44:15.268Z,37.30
2023-02-12T13:46:56.237Z,36.13
2023-02-12T13:49:38.177Z,39.00
2023-02-12T13:52:22.000Z,42.43
2023-02-12T13:54:59.000Z,38.00
2023-02-12T13:57:28.443Z,38.57
2023-02-12T13:59:59.970Z,42.50
2023-02-12T14:02:49.758Z,41.70
2023-02-12T14:05:22.471Z,40.33
2023-02-12T14:07:58.675Z,38.53
2023-02-12T14:10:32.156Z,38.77
2023-02-12T14:13:16.429Z,32.83
2023-02-12T14:15:46.667Z,40.43
2023-02-12T14:18:27.982Z,37.70
2023-02-12T14:21:43.122Z,45.23
2023-02-12T14:24:48.102Z,37.17
2023-02-12T14:27:33.828Z,39.53
2023-02-12T14:30:33.428Z,40.33
2023-02-12T14:33:26.770Z,37.70
2023-02-12T14:36:19.532Z,39.50
2023-02-12T14:39:05.062Z,36.83
2023-02-12T14:41:57.400Z,41.43
2023-02-12T14:44:45.946Z,37.93
2023-02-12T14:47:55.488Z,40.30
2023-02-12T14:50:30.349Z,34.63
2023-02-12T14:53:20.869Z,43.17
2023-02-12T14:55:50.497Z,37.70
2023-02-12T14:58:20.808Z,35.27
2023-02-12T15:00:56.013Z,37.73
2023-02-12T15:03:33.136Z,40.07
2023-02-12T15:06:10.973Z,42.23
2023-02-12T15:08:49.613Z,56.37
2023-02-12T15:11:41.335Z,41.27
2023-02-12T15:14:16.649Z,38.20
2023-02-12T15:16:59.672Z,38.00
2023-02-12T15:19:40.508Z,33.37
2023-02-12T15:22:23.353Z,38.63
2023-02-12T15:24:51.615Z,40.73
2023-02-12T15:27:22.682Z,41.23
2023-02-12T15:29:54.188Z,34.30
2023-02-12T15:32:28.056Z,36.77
2023-02-12T15:34:57.180Z,44.77
2023-02-12T15:37:32.330Z,38.27
2023-02-12T15:40:05.549Z,35.70
2023-02-12T15:42:38.198Z,34.10
2023-02-12T15:45:20.242Z,34.27
2023-02-12T15:48:00.597Z,36.90
2023-02-12T15:50:30.384Z,36.17
2023-02-12T15:52:58.515Z,36.47
2023-02-12T15:55:34.804Z,38.50
2023-02-12T15:58:03.391Z,35.67
2023-02-12T16:00:38.647Z,38.00
2023-02-12T16:03:19.033Z,35.73
2023-02-12T16:05:48.842Z,40.50
2023-02-12T16:08:18.495Z,36.17
2023-02-12T16:10:49.835Z,37.90
2023-02-12T16:13:20.328Z,35.13
2023-02-12T16:16:04.669Z,36.13
2023-02-12T16:18:35.351Z,44.80
2023-02-12T16:21:06.035Z,38.37
2023-02-12T16:23:35.856Z,35.20
2023-02-12T16:26:04.535Z,34.07
2023-02-12T16:28:34.070Z,39.10
2023-02-12T16:31:10.713Z,39.50
2023-02-12T16:33:48.920Z,39.20
2023-02-12T16:36:33.139Z,38.00
2023-02-12T16:39:03.357Z,36.07
2023-02-12T16:41:32.650Z,33.70
2023-02-12T16:44:25.152Z,40.50
2023-02-12T16:46:56.181Z,39.03
2023-02-12T16:49:27.434Z,40.30
2023-02-12T16:52:26.690Z,40.43
2023-02-12T16:54:56.522Z,38.43
2023-02-12T16:57:24.505Z,35.97
2023-02-12T16:59:53.029Z,38.57
2023-02-12T17:02:22.111Z,39.33
2023-02-12T17:04:51.702Z,38.20
2023-02-12T17:07:23.450Z,36.83
2023-02-12T17:09:52.125Z,38.20
2023-02-12T17:12:20.370Z,42.40
2023-02-12T17:14:48.979Z,43.67
2023-02-12T17:17:17.074Z,42.23
2023-02-12T17:19:46.218Z,38.40
2023-02-12T17:22:22.615Z,39.73
2023-02-12T17:24:51.568Z,42.00
2023-02-12T17:27:19.681Z,41.97
2023-02-12T17:29:49.398Z,46.20
2023-02-12T17:32:17.898Z,41.47
2023-02-12T17:34:48.853Z,42.30
2023-02-12T17:37:19.170Z,44.50
2023-02-12T17:39:47.399Z,40.97
2023-02-12T17:42:16.301Z,40.93
2023-02-12T17:44:44.460Z,49.63
2023-02-12T17:47:12.486Z,45.83
2023-02-12T17:49:41.154Z,47.27
2023-02-12T17:52:09.162Z,44.90
2023-02-12T17:54:41.810Z,43.63
2023-02-12T17:57:13.038Z,40.50
2023-02-12T17:59:42.696Z,43.80
2023-02-12T18:02:13.369Z,46.50
2023-02-12T18:04:41.437Z,46.40
2023-02-12T18:07:09.976Z,44.57
2023-02-12T18:09:39.964Z,43.07
2023-02-12T18:12:08.861Z,45.17
2023-02-12T18:14:36.842Z,42.43
2023-02-12T18:17:05.318Z,42.90
2023-02-12T18:19:33.276Z,46.90
2023-02-12T18:22:02.100Z,43.87
2023-02-12T18:24:31.603Z,39.87
2023-02-12T18:27:01.193Z,41.47
2023-02-12T18:29:31.427Z,41.00
2023-02-12T18:32:00.106Z,41.20
2023-02-12T18:34:29.634Z,44.50
2023-02-12T18:36:57.821Z,41.80
2023-02-12T18:39:27.434Z,37.83
2023-02-12T18:41:55.449Z,42.77
2023-02-12T18:44:24.965Z,45.33
2023-02-12T18:46:54.170Z,43.47
2023-02-12T18:49:22.132Z,42.17
2023-02-12T18:51:51.260Z,38.70
2023-02-12T18:54:20.388Z,42.47
2023-02-12T18:56:52.978Z,42.47
2023-02-12T18:59:24.821Z,36.13
2023-02-12T19:01:55.882Z,39.97
2023-02-12T19:04:27.629Z,35.53
2023-02-12T19:06:55.967Z,41.43
2023-02-12T19:09:26.808Z,38.27
2023-02-12T19:11:57.664Z,40.27
2023-02-12T19:14:27.845Z,34.43
2023-02-12T19:16:57.375Z,40.53
2023-02-12T19:19:29.302Z,41.47
2023-02-12T19:21:57.360Z,30.23
2023-02-12T19:24:32.364Z,31.50
2023-02-12T19:27:06.253Z,36.60
2023-02-12T19:29:36.898Z,38.50
2023-02-12T19:32:07.098Z,35.20
2023-02-12T19:34:35.646Z,34.13
2023-02-12T19:37:04.113Z,39.93
2023-02-12T19:39:32.423Z,42.40
2023-02-12T19:42:00.850Z,29.67
2023-02-12T19:44:29.401Z,37.43
2023-02-12T19:46:57.725Z,35.70
2023-02-12T19:49:30.127Z,33.47
2023-02-12T19:51:58.283Z,34.27
2023-02-12T19:54:27.268Z,36.53
2023-02-12T19:56:56.129Z,33.77
2023-02-12T19:59:27.488Z,38.10
2023-02-12T20:01:57.259Z,35.37
2023-02-12T20:04:27.452Z,35.13
2023-02-12T20:06:56.446Z,34.33
2023-02-12T20:09:24.524Z,33.93
2023-02-12T20:11:53.596Z,37.13
2023-02-12T20:14:23.080Z,32.13
2023-02-12T20:16:52.068Z,36.13
2023-02-12T20:19:22.998Z,39.63
2023-02-12T20:21:54.969Z,32.70
2023-02-12T20:24:24.398Z,33.60
2023-02-12T20:26:53.288Z,31.90
2023-02-12T20:29:23.874Z,28.60
2023-02-12T20:31:52.439Z,29.27
2023-02-12T20:34:22.017Z,31.43
2023-02-12T20:36:50.525Z,25.70
2023-02-12T20:39:21.794Z,30.10
2023-02-12T20:41:52.279Z,29.90
2023-02-12T20:44:22.127Z,25.80
2023-02-12T20:46:55.925Z,30.73
2023-02-12T20:49:25.891Z,25.80
2023-02-12T20:51:54.176Z,28.70
2023-02-12T20:54:23.959Z,28.10
2023-02-12T20:56:52.546Z,32.57
2023-02-12T20:59:20.655Z,24.87
2023-02-12T21:01:49.437Z,25.50
2023-02-12T21:04:19.925Z,28.67
2023-02-12T21:06:48.906Z,23.53
2023-02-12T21:09:17.493Z,25.13
2023-02-12T21:11:48.232Z,27.43
2023-02-12T21:14:22.842Z,24.93
2023-02-12T21:16:52.894Z,30.70
2023-02-12T21:19:22.520Z,26.67
2023-02-12T21:21:57.933Z,26.23
2023-02-12T21:24:27.145Z,27.63
2023-02-12T21:26:56.817Z,25.83
2023-02-12T21:29:26.495Z,21.93
2023-02-12T21:31:55.625Z,29.00
2023-02-12T21:34:24.667Z,28.13
2023-02-12T21:36:55.708Z,25.17
2023-02-12T21:39:26.990Z,28.33
2023-02-12T21:42:00.730Z,29.93
2023-02-12T21:44:29.155Z,27.27
2023-02-12T21:46:58.596Z,28.57
2023-02-12T21:49:27.875Z,35.07
2023-02-12T21:51:58.385Z,26.07
2023-02-12T21:54:27.005Z,27.43
2023-02-12T21:56:56.750Z,33.03
2023-02-12T21:59:26.822Z,29.57
2023-02-12T22:01:58.333Z,27.20
2023-02-12T22:04:27.096Z,30.10
2023-02-12T22:06:56.488Z,27.80
2023-02-12T22:09:24.924Z,30.70
2023-02-12T22:11:53.901Z,26.37
2023-02-12T22:14:25.713Z,29.43
2023-02-12T22:16:54.692Z,26.00
2023-02-12T22:19:22.759Z,22.03
2023-02-12T22:21:52.487Z,23.10
2023-02-12T22:24:21.732Z,27.50
2023-02-12T22:26:49.836Z,26.60
2023-02-12T22:29:18.100Z,24.03
2023-02-12T22:31:48.855Z,23.30
2023-02-12T22:34:19.028Z,25.30
2023-02-12T22:36:49.845Z,24.80
2023-02-12T22:39:18.507Z,27.13
2023-02-12T22:41:47.483Z,28.30
2023-02-12T22:44:20.031Z,27.30
2023-02-12T22:46:50.940Z,28.27
2023-02-12T22:49:19.781Z,22.70
2023-02-12T22:51:48.467Z,22.67
2023-02-12T22:54:20.567Z,23.00
2023-02-12T22:56:52.128Z,23.93
2023-02-12T22:59:21.107Z,28.13
2023-02-12T23:01:50.500Z,25.37
2023-02-12T23:04:20.033Z,27.50
2023-02-12T23:06:49.398Z,27.13
2023-02-12T23:09:19.158Z,30.27
2023-02-12T23:11:49.651Z,22.37
2023-02-12T23:14:18.156Z,23.70
2023-02-12T23:16:46.765Z,25.60
2023-02-12T23:19:17.518Z,30.63
2023-02-12T23:21:46.060Z,23.20
2023-02-12T23:24:15.986Z,28.67
2023-02-12T23:26:45.288Z,25.40
2023-02-12T23:29:13.501Z,29.13
2023-02-12T23:31:42.258Z,26.60
2023-02-12T23:34:10.448Z,26.37
2023-02-12T23:36:40.292Z,24.23
2023-02-12T23:39:09.398Z,33.07
2023-02-12T23:41:38.317Z,32.17
2023-02-12T23:44:07.015Z,24.93
2023-02-12T23:46:35.230Z,24.10
2023-02-12T23:49:03.430Z,26.77
2023-02-12T23:51:32.641Z,27.57
2023-02-12T23:54:02.573Z,24.03
2023-02-12T23:56:32.659Z,23.97
2023-02-12T23:59:01.800Z,23.23
